Pratica di Mare, Italy

12:59 AM CET del 09 Dicembre 2016 (GMT +0100)
Torvajanica Alta, Pomezia | | Change Station

Alt. 128 ft 41.63 °N, 12.49 °E | Updated 10 seconds ago

Sereno
Sereno
48.0 °F
Sembra 46 °F
N
4.3
Vento Variabile Vento da NE
Gusts 4.3 mph

Oggi
Massima -- | Minima -- °F
--% Possibilità di precip.
Ieri
Massima -- | Minima -- °F
Precip. -- in
Pressione 30.54 in
Visibilità 5.0 miglia
Nuvole
Raffreddamento del vento 46 °F
Punto di rugiada 39 °F
Umidità 70%
Piovosità 0.00 in
Spessore del manto nevoso Non disponibile.
7:25 AM 4:39 PM
Gobba a ponente, 68% visible
METAR LIRA 082350Z 34003KT 8000 NSC 04/01 Q1034
Pressione 30.54 in
Visibilità 5.0 miglia
Nuvole
Raffreddamento del vento 46 °F
Punto di rugiada 39 °F
Umidità 70%
Piovosità 0.00 in
Spessore del manto nevoso Non disponibile.
7:25 AM 4:39 PM
Gobba a ponente, 68% visible
METAR LIRA 082350Z 34003KT 8000 NSC 04/01 Q1034

10-Day Weather Forecast

×

Almanac

Astronomia

Dec. 09, 2016 Alba Tramonto
Ora attuale
Crepuscolo civile
Crepuscolo nautico
Crepuscolo astronomico
Luna
Estensione della luce visibile
Lunghezza del giorno
Tomorrow will be .
, % of the Moon is Illuminated

Gli estremi di oggi

Massime Regione Minime Regione

Community

WunderPhotos

Upload Photos

1,956,277 foto caricate!

WunderBlog® & News

Nearby

Qualità dell'aria

  Qualità dell'aria Indice AQ Inquinante
Not available.

Profondità neve

Stazione Profondità Altitudine

Attività sismica

Città  Distanza Mag. Data & Ora
Minimo Magnitudo Mostrato è 2.5.

Temperature delle acque costiere

Località Temperatura

Stations

Stazioni meteo nelle vicinanze

Ubicazione della stazione Temp. Raffreddamento del vento Punto di rugiada Umidità Vento Precip. Alt. Aggiornato Tipo